createdAt,value
2023-01-18T00:00:42.964Z,21.02
2023-01-18T00:10:42.319Z,18.30
2023-01-18T00:20:24.172Z,19.30
2023-01-18T00:35:29.081Z,15.98
2023-01-18T00:49:24.964Z,15.98
2023-01-18T01:09:20.314Z,19.25
2023-01-18T01:13:33.708Z,26.88
2023-01-18T01:23:30.848Z,14.40
2023-01-18T01:27:53.518Z,14.25
2023-01-18T01:33:04.079Z,12.88
2023-01-18T01:37:30.841Z,15.40
2023-01-18T01:41:54.171Z,12.25
2023-01-18T01:46:22.995Z,15.32
2023-01-18T01:50:37.091Z,15.85
2023-01-18T01:55:18.730Z,14.25
2023-01-18T02:09:51.316Z,18.75
2023-01-18T02:14:40.120Z,18.27
2023-01-18T02:19:08.497Z,16.83
2023-01-18T02:28:53.479Z,19.77
2023-01-18T02:33:33.847Z,19.33
2023-01-18T02:38:04.570Z,20.80
2023-01-18T02:43:17.155Z,21.35
2023-01-18T03:13:07.763Z,22.98
2023-01-18T03:22:02.502Z,24.48
2023-01-18T03:26:34.680Z,25.50
2023-01-18T03:41:05.011Z,32.10
2023-01-18T03:45:32.200Z,28.58
2023-01-18T04:25:36.398Z,17.83
2023-01-18T04:35:54.376Z,17.13
2023-01-18T04:40:16.521Z,16.25
2023-01-18T04:44:40.102Z,18.48
2023-01-18T05:04:02.106Z,18.10
2023-01-18T05:47:40.288Z,14.43
2023-01-18T05:51:42.477Z,14.15
2023-01-18T06:17:25.913Z,16.30
2023-01-18T06:21:39.169Z,14.35
2023-01-18T06:31:02.836Z,13.93
2023-01-18T06:40:50.782Z,9.90
2023-01-18T06:46:24.174Z,10.73
2023-01-18T07:06:37.556Z,13.02
2023-01-18T07:10:39.168Z,16.45
2023-01-18T07:14:40.820Z,17.58
2023-01-18T07:18:44.369Z,18.85
2023-01-18T07:22:45.964Z,16.65
2023-01-18T07:27:21.298Z,17.85
2023-01-18T07:32:03.696Z,17.27
2023-01-18T07:36:02.444Z,17.92
2023-01-18T07:40:04.413Z,15.10
2023-01-18T07:44:10.031Z,16.88
2023-01-18T07:48:11.687Z,19.98
2023-01-18T07:52:17.738Z,15.82
2023-01-18T07:56:19.366Z,11.75
2023-01-18T08:00:23.526Z,10.77
2023-01-18T08:04:25.881Z,17.63
2023-01-18T08:08:29.953Z,15.65
2023-01-18T08:12:31.641Z,13.75
2023-01-18T08:16:37.011Z,18.13
2023-01-18T08:20:38.588Z,10.88
2023-01-18T08:24:41.239Z,14.85
2023-01-18T08:28:54.682Z,16.20
2023-01-18T08:33:00.877Z,15.00
2023-01-18T08:37:02.649Z,14.93
2023-01-18T08:41:04.404Z,11.52
2023-01-18T08:45:07.803Z,15.07
2023-01-18T08:49:12.192Z,16.02
2023-01-18T08:53:15.328Z,10.70
2023-01-18T08:57:17.267Z,13.98
2023-01-18T09:01:19.378Z,15.80
2023-01-18T09:05:21.653Z,15.10
2023-01-18T09:09:23.705Z,11.82
2023-01-18T09:13:25.617Z,14.48
2023-01-18T09:17:27.562Z,11.95
2023-01-18T09:21:29.876Z,14.27
2023-01-18T09:25:31.615Z,17.52
2023-01-18T09:29:33.262Z,15.73
2023-01-18T09:33:37.759Z,11.32
2023-01-18T09:37:39.967Z,9.85
2023-01-18T09:41:44.595Z,11.18
2023-01-18T09:45:48.091Z,12.05
2023-01-18T09:50:02.511Z,10.43
2023-01-18T09:54:16.977Z,12.40
2023-01-18T09:58:33.568Z,11.10
2023-01-18T10:02:41.429Z,9.88
2023-01-18T10:06:46.326Z,11.48
2023-01-18T10:11:04.551Z,8.88
2023-01-18T10:15:17.864Z,8.93
2023-01-18T10:19:24.799Z,12.10
2023-01-18T10:23:40.830Z,8.15
2023-01-18T10:28:00.552Z,8.05
2023-01-18T10:32:05.714Z,9.63
2023-01-18T10:36:12.631Z,10.88
2023-01-18T10:40:15.017Z,7.53
2023-01-18T10:44:17.392Z,9.43
2023-01-18T10:48:19.367Z,8.32
2023-01-18T10:52:29.518Z,8.80
2023-01-18T10:56:31.070Z,9.38
2023-01-18T11:00:34.860Z,10.43
2023-01-18T11:04:37.037Z,8.88
2023-01-18T11:08:38.861Z,14.25
2023-01-18T11:12:45.733Z,10.10
2023-01-18T11:17:17.716Z,9.85
2023-01-18T11:21:23.037Z,14.68
2023-01-18T11:25:26.641Z,10.55
2023-01-18T11:29:31.413Z,12.32
2023-01-18T11:33:33.460Z,11.57
2023-01-18T11:37:37.150Z,11.13
2023-01-18T11:41:38.720Z,9.55
2023-01-18T11:45:46.168Z,12.02
2023-01-18T11:50:10.311Z,8.50
2023-01-18T11:54:34.974Z,11.73
2023-01-18T11:58:36.851Z,9.27
2023-01-18T12:02:56.559Z,6.85
2023-01-18T12:07:21.677Z,10.00
2023-01-18T12:11:45.737Z,9.30
2023-01-18T12:16:08.374Z,8.68
2023-01-18T12:20:27.657Z,7.65
2023-01-18T12:24:35.440Z,6.90
2023-01-18T12:28:50.983Z,9.57
2023-01-18T12:33:02.442Z,10.52
2023-01-18T12:37:22.732Z,8.15
2023-01-18T12:41:33.671Z,9.70
2023-01-18T12:45:43.340Z,9.73
2023-01-18T12:49:49.334Z,11.18
2023-01-18T12:53:56.124Z,9.18
2023-01-18T12:58:00.055Z,10.18
2023-01-18T13:02:18.336Z,11.93
2023-01-18T13:06:21.315Z,7.78
2023-01-18T13:10:25.457Z,8.98
2023-01-18T13:14:41.412Z,10.95
2023-01-18T13:19:26.000Z,11.60
2023-01-18T13:23:50.246Z,7.40
2023-01-18T13:28:04.139Z,9.98
2023-01-18T13:32:29.648Z,7.97
2023-01-18T13:36:47.078Z,8.00
2023-01-18T13:41:01.301Z,10.70
2023-01-18T13:45:26.034Z,8.32
2023-01-18T13:49:37.364Z,8.32
2023-01-18T13:53:50.108Z,10.05
2023-01-18T13:57:55.824Z,6.28
2023-01-18T14:02:07.244Z,5.88
2023-01-18T14:06:15.566Z,5.22
2023-01-18T14:10:40.571Z,8.70
2023-01-18T14:14:59.754Z,6.68
2023-01-18T14:19:17.596Z,9.45
2023-01-18T14:23:56.628Z,7.57
2023-01-18T14:28:07.751Z,9.98
2023-01-18T14:32:15.704Z,5.60
2023-01-18T14:36:27.028Z,10.98
2023-01-18T14:40:28.691Z,6.65
2023-01-18T14:44:57.745Z,7.97
2023-01-18T14:49:01.812Z,10.85
2023-01-18T14:53:04.638Z,12.68
2023-01-18T14:57:09.334Z,6.53
2023-01-18T15:01:26.509Z,11.18
2023-01-18T15:09:35.885Z,10.98
2023-01-18T18:28:45.127Z,8.23
2023-01-18T18:32:53.053Z,10.38
2023-01-18T18:42:41.966Z,6.90
2023-01-18T20:13:00.872Z,10.90
2023-01-18T20:17:48.306Z,11.57
2023-01-18T20:22:23.794Z,10.48
2023-01-18T20:38:23.306Z,10.10
2023-01-18T20:48:03.030Z,11.90
2023-01-18T20:52:05.582Z,10.05
2023-01-18T20:56:19.939Z,12.75
2023-01-18T21:00:29.504Z,13.23
2023-01-18T21:04:35.570Z,12.30
2023-01-18T21:08:37.908Z,12.57
2023-01-18T21:12:41.436Z,11.70
2023-01-18T21:16:43.781Z,12.00
2023-01-18T21:20:51.783Z,9.50
2023-01-18T21:24:53.780Z,9.32
2023-01-18T21:28:55.353Z,18.88
2023-01-18T21:32:57.030Z,10.98
2023-01-18T21:37:02.070Z,12.63
2023-01-18T21:41:24.772Z,12.05
2023-01-18T21:45:45.650Z,8.77
2023-01-18T21:50:20.985Z,10.45
2023-01-18T21:54:22.815Z,10.82
2023-01-18T21:58:43.094Z,14.23
2023-01-18T22:02:45.720Z,12.98
2023-01-18T22:06:47.991Z,11.07
2023-01-18T22:10:49.616Z,9.88
2023-01-18T22:14:51.235Z,13.45
2023-01-18T22:18:52.685Z,11.45
2023-01-18T22:22:55.207Z,11.27
2023-01-18T22:26:58.817Z,12.00
2023-01-18T22:31:01.344Z,11.30
2023-01-18T22:35:03.208Z,13.98
2023-01-18T22:39:04.838Z,15.98
2023-01-18T22:43:07.754Z,15.55
2023-01-18T22:47:09.666Z,18.67
2023-01-18T22:51:15.814Z,13.27
2023-01-18T22:55:17.286Z,15.05
2023-01-18T22:59:19.691Z,14.85
2023-01-18T23:03:21.730Z,12.48
2023-01-18T23:07:23.511Z,14.23
2023-01-18T23:11:26.838Z,16.10
2023-01-18T23:15:47.047Z,15.02
2023-01-18T23:19:48.565Z,13.38
2023-01-18T23:23:50.348Z,14.70
2023-01-18T23:27:52.120Z,13.52
2023-01-18T23:31:53.745Z,16.85
2023-01-18T23:35:55.499Z,12.60
2023-01-18T23:40:15.903Z,13.63
2023-01-18T23:44:36.030Z,16.92
2023-01-18T23:48:55.988Z,13.15
2023-01-18T23:53:19.161Z,14.38
2023-01-18T23:57:20.610Z,13.73
